Terminal Aerodrome Forecast
Issued by NWS

Home | Current Version | Previous Version | Text Only | Print | Product List | Glossary On
Versions: 1 2 3 4 5 6 7 8 9 10 11 12 13 14 15 16 17 18 19 20 21 22 23 24 25 26 27 28 29 30
000
FTUS43 KMKX 201138
TAFENW
TAF
KENW 201138Z 2012/2112 14005KT 5SM BR BKN200
     FM201500 15009KT 6SM BR BKN200
     FM202000 14013KT P6SM BKN150
     FM210300 17010G19KT P6SM VCSH OVC150 WS020/18040KT
     FM210400 18009KT 6SM -SHRA BR OVC090 WS020/19040KT
     FM210600 19009KT 4SM -SHRA BR OVC015
     FM210900 23007KT 3SM BR OVC050=

USA.gov is the U.S. government's official web portal to all federal, state and local government web resources and services.